createdAt,value
2016-12-21T00:00:53.277Z,1013.47
2016-12-21T00:01:53.385Z,1013.5
2016-12-21T00:02:53.241Z,1013.5
2016-12-21T00:03:53.251Z,1013.47
2016-12-21T00:04:53.077Z,1013.49
2016-12-21T00:05:53.325Z,1013.48
2016-12-21T00:06:53.349Z,1013.49
2016-12-21T00:07:53.313Z,1013.5
2016-12-21T00:08:53.377Z,1013.46
2016-12-21T00:09:53.233Z,1013.44
2016-12-21T00:10:53.281Z,1013.47
2016-12-21T00:11:53.298Z,1013.51
2016-12-21T00:12:53.291Z,1013.48
2016-12-21T00:13:53.213Z,1013.46
2016-12-21T00:14:53.328Z,1013.47
2016-12-21T00:15:53.375Z,1013.48
2016-12-21T00:16:53.290Z,1013.53
2016-12-21T00:17:53.264Z,1013.54
2016-12-21T00:18:53.678Z,1013.5
2016-12-21T00:19:53.267Z,1013.48
2016-12-21T00:20:53.349Z,1013.51
2016-12-21T00:21:53.523Z,1013.51
2016-12-21T00:22:53.407Z,1013.52
2016-12-21T00:23:53.327Z,1013.54
2016-12-21T00:24:53.440Z,1013.54
2016-12-21T00:25:53.491Z,1013.51
2016-12-21T00:26:53.344Z,1013.5
2016-12-21T00:27:54.028Z,1013.53
2016-12-21T00:28:53.660Z,1013.53
2016-12-21T00:29:53.406Z,1013.55
2016-12-21T00:30:53.596Z,1013.52
2016-12-21T00:31:53.543Z,1013.53
2016-12-21T00:32:53.334Z,1013.56
2016-12-21T00:33:53.604Z,1013.6
2016-12-21T00:34:53.377Z,1013.6
2016-12-21T00:35:53.426Z,1013.63
2016-12-21T00:36:53.471Z,1013.68
2016-12-21T00:37:53.440Z,1013.69
2016-12-21T00:38:53.468Z,1013.68
2016-12-21T00:39:53.416Z,1013.7
2016-12-21T00:40:53.472Z,1013.72
2016-12-21T00:41:53.501Z,1013.73
2016-12-21T00:42:53.462Z,1013.73
2016-12-21T00:43:53.508Z,1013.76
2016-12-21T00:44:53.539Z,1013.79
2016-12-21T00:45:53.576Z,1013.82
2016-12-21T00:46:53.614Z,1013.83
2016-12-21T00:47:53.839Z,1013.85
2016-12-21T00:48:53.689Z,1013.85
2016-12-21T00:49:53.643Z,1013.85
2016-12-21T00:50:53.722Z,1013.86
2016-12-21T00:51:53.750Z,1013.88
2016-12-21T00:52:53.590Z,1013.87
2016-12-21T00:53:53.676Z,1013.93
2016-12-21T00:54:53.888Z,1013.97
2016-12-21T00:55:53.717Z,1013.98
2016-12-21T00:56:53.621Z,1013.99
2016-12-21T00:57:53.659Z,1013.98
2016-12-21T00:58:53.808Z,1014.01
2016-12-21T00:59:54.024Z,1014.03
2016-12-21T01:00:53.789Z,1014.04
2016-12-21T01:01:53.813Z,1014.04
2016-12-21T01:02:53.691Z,1013.99
2016-12-21T01:03:53.744Z,1014.07
2016-12-21T01:04:53.781Z,1014.06
2016-12-21T01:05:53.765Z,1013.95
2016-12-21T01:06:53.789Z,1013.99
2016-12-21T01:07:53.885Z,1013.98
2016-12-21T01:08:53.770Z,1013.96
2016-12-21T01:09:53.895Z,1013.99
2016-12-21T01:10:53.814Z,1013.95
2016-12-21T01:11:53.883Z,1013.95
2016-12-21T01:12:53.883Z,1013.96
2016-12-21T01:13:53.863Z,1013.99
2016-12-21T01:14:53.856Z,1013.95
2016-12-21T01:15:53.907Z,1013.93
2016-12-21T01:16:53.867Z,1013.99
2016-12-21T01:17:53.920Z,1013.97
2016-12-21T01:18:53.980Z,1013.98
2016-12-21T01:19:54.006Z,1013.94
2016-12-21T01:20:53.934Z,1013.95
2016-12-21T01:21:54.024Z,1013.94
2016-12-21T01:22:53.957Z,1013.91
2016-12-21T01:23:54.031Z,1013.93
2016-12-21T01:24:54.018Z,1013.89
2016-12-21T01:25:53.918Z,1013.92
2016-12-21T01:26:54.204Z,1013.94
2016-12-21T01:27:54.302Z,1013.93
2016-12-21T01:28:54.075Z,1013.93
2016-12-21T01:29:54.164Z,1013.94
2016-12-21T01:30:54.142Z,1013.99
2016-12-21T01:31:54.169Z,1014.03
2016-12-21T01:32:54.231Z,1014.01
2016-12-21T01:33:54.094Z,1013.99
2016-12-21T01:34:54.127Z,1013.98
2016-12-21T01:35:54.180Z,1013.95
2016-12-21T01:36:54.217Z,1013.98
2016-12-21T01:37:54.205Z,1014
2016-12-21T01:38:54.215Z,1014.03
2016-12-21T01:39:54.200Z,1014
2016-12-21T01:40:54.469Z,1014.02
2016-12-21T01:41:54.182Z,1014.01
2016-12-21T01:42:54.359Z,1014
2016-12-21T01:43:54.431Z,1014.02
2016-12-21T01:44:54.353Z,1014.02
2016-12-21T01:45:54.207Z,1014
2016-12-21T01:46:54.207Z,1014.04
2016-12-21T01:47:54.177Z,1013.97
2016-12-21T01:48:54.305Z,1013.97
2016-12-21T01:49:54.235Z,1013.95
2016-12-21T01:50:54.383Z,1013.94
2016-12-21T01:51:54.326Z,1014
2016-12-21T01:52:54.314Z,1014.02
2016-12-21T01:53:54.549Z,1014.04
2016-12-21T01:54:54.395Z,1014.05
2016-12-21T01:55:54.429Z,1014.02
2016-12-21T01:56:54.405Z,1014.04
2016-12-21T01:57:54.421Z,1014.03
2016-12-21T01:58:54.344Z,1014.05
2016-12-21T01:59:54.371Z,1014.04
2016-12-21T02:00:54.513Z,1014.02
2016-12-21T02:01:54.495Z,1014
2016-12-21T02:02:54.404Z,1014.02
2016-12-21T02:03:54.779Z,1014.03
2016-12-21T02:04:54.480Z,1014
2016-12-21T02:05:54.724Z,1014.01
2016-12-21T02:06:54.435Z,1014.03
2016-12-21T02:07:54.777Z,1014.06
2016-12-21T02:08:54.470Z,1013.97
2016-12-21T02:09:54.509Z,1013.98
2016-12-21T02:10:54.495Z,1014
2016-12-21T02:11:54.534Z,1013.99
2016-12-21T02:12:54.536Z,1014.06
2016-12-21T02:13:54.901Z,1014.07
2016-12-21T02:14:54.675Z,1014.11
2016-12-21T02:15:54.580Z,1014.14
2016-12-21T02:16:55.039Z,1014.15
2016-12-21T02:17:54.650Z,1014.21
2016-12-21T02:18:54.797Z,1014.17
2016-12-21T02:19:54.666Z,1014.21
2016-12-21T02:20:55.022Z,1014.22
2016-12-21T02:21:54.685Z,1014.17
2016-12-21T02:22:54.704Z,1014.16
2016-12-21T02:23:54.773Z,1014.19
2016-12-21T02:24:54.773Z,1014.23
2016-12-21T02:25:54.748Z,1014.23
2016-12-21T02:26:54.929Z,1014.28
2016-12-21T02:27:54.876Z,1014.3
2016-12-21T02:28:55.057Z,1014.27
2016-12-21T02:29:54.851Z,1014.27
2016-12-21T02:30:54.838Z,1014.35
2016-12-21T02:31:54.722Z,1014.29
2016-12-21T02:32:54.694Z,1014.32
2016-12-21T02:33:54.915Z,1014.31
2016-12-21T02:34:54.787Z,1014.39
2016-12-21T02:35:54.866Z,1014.42
2016-12-21T02:36:54.764Z,1014.42
2016-12-21T02:37:54.772Z,1014.38
2016-12-21T02:38:54.971Z,1014.39
2016-12-21T02:39:54.824Z,1014.42
2016-12-21T02:40:55.105Z,1014.45
2016-12-21T02:41:54.871Z,1014.42
2016-12-21T02:42:54.873Z,1014.44
2016-12-21T02:43:54.975Z,1014.47
2016-12-21T02:44:55.163Z,1014.51
2016-12-21T02:45:54.978Z,1014.56
2016-12-21T02:46:55.141Z,1014.53
2016-12-21T02:47:55.065Z,1014.54
2016-12-21T02:48:55.224Z,1014.52
2016-12-21T02:49:55.022Z,1014.52
2016-12-21T02:50:55.104Z,1014.5
2016-12-21T02:51:55.237Z,1014.47
2016-12-21T02:52:55.034Z,1014.52
2016-12-21T02:53:55.241Z,1014.47
2016-12-21T02:54:55.004Z,1014.5
2016-12-21T02:55:55.350Z,1014.47
2016-12-21T02:56:55.021Z,1014.54
2016-12-21T02:57:55.239Z,1014.56
2016-12-21T02:58:55.365Z,1014.61
2016-12-21T02:59:55.500Z,1014.63
2016-12-21T03:00:55.195Z,1014.64
2016-12-21T03:01:55.167Z,1014.65
2016-12-21T03:02:55.128Z,1014.63
2016-12-21T03:03:55.301Z,1014.65
2016-12-21T03:04:55.300Z,1014.66
2016-12-21T03:05:55.279Z,1014.62
2016-12-21T03:06:55.269Z,1014.64
2016-12-21T03:07:55.328Z,1014.69
2016-12-21T03:08:55.158Z,1014.71
2016-12-21T03:09:55.354Z,1014.69
2016-12-21T03:10:55.243Z,1014.71
2016-12-21T03:11:55.400Z,1014.68
2016-12-21T03:12:55.319Z,1014.69
2016-12-21T03:13:55.226Z,1014.67
2016-12-21T03:14:55.254Z,1014.76
2016-12-21T03:15:55.302Z,1014.78
2016-12-21T03:16:55.404Z,1014.8
2016-12-21T03:17:55.228Z,1014.79
2016-12-21T03:18:55.516Z,1014.78
2016-12-21T03:19:55.342Z,1014.79
2016-12-21T03:20:55.249Z,1014.81
2016-12-21T03:21:55.417Z,1014.82
2016-12-21T03:22:55.307Z,1014.86
2016-12-21T03:23:55.355Z,1014.91
2016-12-21T03:24:55.470Z,1014.96
2016-12-21T03:25:55.424Z,1014.92
2016-12-21T03:26:55.459Z,1014.92
2016-12-21T03:27:55.514Z,1014.93
2016-12-21T03:28:55.467Z,1014.98
2016-12-21T03:29:55.493Z,1014.99
2016-12-21T03:30:55.634Z,1015.03
2016-12-21T03:31:55.608Z,1015.02
2016-12-21T03:32:55.466Z,1014.97
2016-12-21T03:33:55.471Z,1015.03
2016-12-21T03:34:55.584Z,1015.06
2016-12-21T03:35:55.574Z,1015.09
2016-12-21T03:36:55.562Z,1015.12
2016-12-21T03:37:55.574Z,1015.13
2016-12-21T03:38:55.642Z,1015.09
2016-12-21T03:39:55.655Z,1015.1
2016-12-21T03:40:55.557Z,1015.08
2016-12-21T03:41:55.569Z,1015.09
2016-12-21T03:42:55.555Z,1015.11
2016-12-21T03:43:55.519Z,1015.11
2016-12-21T03:44:55.597Z,1015.1
2016-12-21T03:45:55.539Z,1015.13
2016-12-21T03:46:55.746Z,1015.11
2016-12-21T03:47:55.701Z,1015.13
2016-12-21T03:48:55.777Z,1015.13
2016-12-21T03:49:55.844Z,1015.06
2016-12-21T03:50:55.631Z,1015.08
2016-12-21T03:51:55.770Z,1015.12
2016-12-21T03:52:55.734Z,1015.2
2016-12-21T03:53:55.747Z,1015.16
2016-12-21T03:54:55.986Z,1015.13
2016-12-21T03:55:55.906Z,1015.14
2016-12-21T03:56:55.959Z,1015.12
2016-12-21T03:57:56.007Z,1015.09
2016-12-21T03:58:56.011Z,1015.12
2016-12-21T03:59:55.869Z,1015.08
2016-12-21T04:00:55.953Z,1015.09
2016-12-21T04:01:55.990Z,1015.06
2016-12-21T04:02:56.039Z,1015.08
2016-12-21T04:03:55.821Z,1015.12
2016-12-21T04:04:55.838Z,1015.1
2016-12-21T04:05:55.889Z,1015.13
2016-12-21T04:06:56.005Z,1015.2
2016-12-21T04:07:56.014Z,1015.24
2016-12-21T04:08:55.867Z,1015.21
2016-12-21T04:09:55.858Z,1015.21
2016-12-21T04:10:56.095Z,1015.3
2016-12-21T04:11:55.829Z,1015.31
2016-12-21T04:12:55.980Z,1015.33
2016-12-21T04:13:56.011Z,1015.36
2016-12-21T04:14:56.047Z,1015.35
2016-12-21T04:15:55.989Z,1015.39
2016-12-21T04:16:55.952Z,1015.37
2016-12-21T04:17:55.954Z,1015.4
2016-12-21T04:18:56.040Z,1015.41
2016-12-21T04:19:56.001Z,1015.43
2016-12-21T04:20:56.137Z,1015.45
2016-12-21T04:21:56.199Z,1015.42
2016-12-21T04:22:56.036Z,1015.39
2016-12-21T04:23:56.088Z,1015.42
2016-12-21T04:24:56.335Z,1015.39
2016-12-21T04:25:56.291Z,1015.42
2016-12-21T04:26:56.613Z,1015.45
2016-12-21T04:27:56.002Z,1015.45
2016-12-21T04:28:56.064Z,1015.43
2016-12-21T04:29:56.148Z,1015.43
2016-12-21T04:30:56.135Z,1015.39
2016-12-21T04:31:56.133Z,1015.42
2016-12-21T04:32:56.259Z,1015.38
2016-12-21T04:33:56.154Z,1015.4
2016-12-21T04:34:56.106Z,1015.46
2016-12-21T04:35:56.095Z,1015.46
2016-12-21T04:36:56.172Z,1015.48
2016-12-21T04:37:56.446Z,1015.45
2016-12-21T04:38:56.238Z,1015.49
2016-12-21T04:39:56.362Z,1015.48
2016-12-21T04:40:56.310Z,1015.49
2016-12-21T04:41:56.360Z,1015.51
2016-12-21T04:42:56.417Z,1015.53
2016-12-21T04:43:56.319Z,1015.54
2016-12-21T04:44:56.695Z,1015.59
2016-12-21T04:45:56.950Z,1015.58
2016-12-21T04:46:56.427Z,1015.61
2016-12-21T04:47:56.416Z,1015.61
2016-12-21T04:48:56.373Z,1015.57
2016-12-21T04:49:56.408Z,1015.57
2016-12-21T04:50:56.269Z,1015.58
2016-12-21T04:51:56.356Z,1015.61
2016-12-21T04:52:56.321Z,1015.6
2016-12-21T04:53:56.391Z,1015.59
2016-12-21T04:54:56.440Z,1015.61
2016-12-21T04:55:56.388Z,1015.58
2016-12-21T04:56:56.353Z,1015.61
2016-12-21T04:57:56.336Z,1015.59
2016-12-21T04:58:56.341Z,1015.59
2016-12-21T04:59:56.410Z,1015.57
2016-12-21T05:00:56.427Z,1015.58
2016-12-21T05:01:56.459Z,1015.67
2016-12-21T05:02:56.650Z,1015.7
2016-12-21T05:03:56.414Z,1015.64
2016-12-21T05:04:56.531Z,1015.62
2016-12-21T05:05:57.194Z,1015.63
2016-12-21T05:06:56.620Z,1015.65
2016-12-21T05:07:56.584Z,1015.7
2016-12-21T05:08:56.551Z,1015.69
2016-12-21T05:09:56.800Z,1015.76
2016-12-21T05:10:56.779Z,1015.73
2016-12-21T05:11:56.544Z,1015.69
2016-12-21T05:12:56.911Z,1015.75
2016-12-21T05:13:56.609Z,1015.67
2016-12-21T05:14:57.060Z,1015.68
2016-12-21T05:15:56.680Z,1015.73
2016-12-21T05:16:56.681Z,1015.71
2016-12-21T05:17:56.532Z,1015.8
2016-12-21T05:18:56.578Z,1015.78
2016-12-21T05:19:56.904Z,1015.85
2016-12-21T05:20:56.880Z,1015.95
2016-12-21T05:21:56.889Z,1015.98
2016-12-21T05:22:56.769Z,1016
2016-12-21T05:23:56.857Z,1016.03
2016-12-21T05:24:56.708Z,1016.05
2016-12-21T05:25:56.796Z,1016.1
2016-12-21T05:26:56.900Z,1016.07
2016-12-21T05:27:56.902Z,1016.03
2016-12-21T05:28:56.928Z,1016
2016-12-21T05:29:57.317Z,1015.99
2016-12-21T05:30:57.390Z,1016
2016-12-21T05:31:57.103Z,1015.99
2016-12-21T05:32:57.123Z,1015.93
2016-12-21T05:33:57.639Z,1015.9
2016-12-21T05:34:57.697Z,1015.84
2016-12-21T05:35:58.386Z,1015.85
2016-12-21T05:36:57.469Z,1015.8
2016-12-21T05:37:57.668Z,1015.77
2016-12-21T05:38:57.114Z,1015.7
2016-12-21T05:39:58.039Z,1015.65
2016-12-21T05:40:56.884Z,1015.64
2016-12-21T05:41:57.243Z,1015.6
2016-12-21T05:42:57.041Z,1015.58
2016-12-21T05:43:57.151Z,1015.59
2016-12-21T05:44:57.657Z,1015.57
2016-12-21T05:45:57.011Z,1015.56
2016-12-21T05:46:57.807Z,1015.57
2016-12-21T05:47:57.144Z,1015.57
2016-12-21T05:48:57.007Z,1015.61
2016-12-21T05:49:57.336Z,1015.65
2016-12-21T05:50:58.945Z,1015.67
2016-12-21T05:51:57.273Z,1015.65
2016-12-21T05:52:57.756Z,1015.64
2016-12-21T05:53:57.433Z,1015.65
2016-12-21T05:54:57.378Z,1015.67
2016-12-21T05:55:57.281Z,1015.64
2016-12-21T05:56:57.723Z,1015.61
2016-12-21T05:57:57.289Z,1015.61
2016-12-21T05:58:58.885Z,1015.64
2016-12-21T05:59:57.856Z,1015.7
2016-12-21T06:00:58.263Z,1015.68
2016-12-21T06:01:57.654Z,1015.68
2016-12-21T06:02:58.329Z,1015.68
2016-12-21T06:03:57.804Z,1015.68
2016-12-21T06:04:57.197Z,1015.74
2016-12-21T06:05:57.561Z,1015.74
2016-12-21T06:06:57.519Z,1015.77
2016-12-21T06:07:57.581Z,1015.8
2016-12-21T06:08:57.675Z,1015.87
2016-12-21T06:09:57.542Z,1015.89
2016-12-21T06:10:57.724Z,1015.96
2016-12-21T06:11:57.541Z,1016.02
2016-12-21T06:12:58.039Z,1015.99
2016-12-21T06:13:58.248Z,1015.99
2016-12-21T06:14:57.514Z,1016
2016-12-21T06:15:57.923Z,1016
2016-12-21T06:16:57.860Z,1016.04
2016-12-21T06:17:59.372Z,1016.05
2016-12-21T06:18:58.058Z,1016.06
2016-12-21T06:19:58.017Z,1016.04
2016-12-21T06:20:58.441Z,1016.06
2016-12-21T06:21:58.334Z,1016.06
2016-12-21T06:22:57.719Z,1016.05
2016-12-21T06:23:59.718Z,1015.99
2016-12-21T06:24:58.118Z,1016
2016-12-21T06:25:58.150Z,1016.06
2016-12-21T06:26:57.840Z,1016.1
2016-12-21T06:27:58.043Z,1016.11
2016-12-21T06:28:59.280Z,1016.06
2016-12-21T06:29:58.369Z,1016.09
2016-12-21T06:30:58.091Z,1016.21
2016-12-21T06:31:57.773Z,1016.18
2016-12-21T06:32:57.873Z,1016.17
2016-12-21T06:33:58.014Z,1016.14
2016-12-21T06:34:57.864Z,1016.09
2016-12-21T06:35:58.068Z,1016.04
2016-12-21T06:36:58.430Z,1016.1
2016-12-21T06:37:57.898Z,1016.16
2016-12-21T06:38:58.050Z,1016.2
2016-12-21T06:39:58.284Z,1016.21
2016-12-21T06:40:57.607Z,1016.22
2016-12-21T06:41:58.058Z,1016.22
2016-12-21T06:42:58.373Z,1016.16
2016-12-21T06:43:58.371Z,1016.17
2016-12-21T06:44:59.128Z,1016.13
2016-12-21T06:45:58.060Z,1016.09
2016-12-21T06:46:58.128Z,1016.02
2016-12-21T06:47:58.764Z,1016.04
2016-12-21T06:48:58.038Z,1016.03
2016-12-21T06:49:58.095Z,1016.08
2016-12-21T06:50:58.338Z,1016.03
2016-12-21T06:51:58.641Z,1016.13
2016-12-21T06:52:59.176Z,1016.15
2016-12-21T06:53:59.237Z,1016.17
2016-12-21T06:54:59.178Z,1016.15
2016-12-21T06:55:58.377Z,1016.14
2016-12-21T06:56:58.021Z,1016.16
2016-12-21T06:57:58.036Z,1016.17
2016-12-21T06:58:58.214Z,1016.18
2016-12-21T06:59:58.192Z,1016.2
2016-12-21T07:00:58.904Z,1016.2
2016-12-21T07:01:58.168Z,1016.22
2016-12-21T07:02:58.217Z,1016.28
2016-12-21T07:03:58.358Z,1016.33
2016-12-21T07:04:58.119Z,1016.29
2016-12-21T07:06:00.540Z,1016.3
2016-12-21T07:06:58.489Z,1016.29
2016-12-21T07:07:58.903Z,1016.29
2016-12-21T07:08:59.293Z,1016.26
2016-12-21T07:09:58.116Z,1016.25
2016-12-21T07:10:58.519Z,1016.28
2016-12-21T07:11:58.359Z,1016.36
2016-12-21T07:12:59.047Z,1016.35
2016-12-21T07:13:58.612Z,1016.39
2016-12-21T07:14:59.061Z,1016.38
2016-12-21T07:15:58.598Z,1016.36
2016-12-21T07:16:59.041Z,1016.43
2016-12-21T07:17:59.064Z,1016.49
2016-12-21T07:19:00.002Z,1016.51
2016-12-21T07:19:58.401Z,1016.51
2016-12-21T07:20:58.576Z,1016.49
2016-12-21T07:21:58.840Z,1016.39
2016-12-21T07:22:58.052Z,1016.41
2016-12-21T07:23:58.378Z,1016.39
2016-12-21T07:24:58.173Z,1016.43
2016-12-21T07:25:58.385Z,1016.47
2016-12-21T07:26:58.688Z,1016.43
2016-12-21T07:27:58.326Z,1016.35
2016-12-21T07:28:58.570Z,1016.34
2016-12-21T07:29:58.280Z,1016.29
2016-12-21T07:30:58.838Z,1016.31
2016-12-21T07:31:58.359Z,1016.33
2016-12-21T07:32:58.801Z,1016.33
2016-12-21T07:33:58.788Z,1016.37
2016-12-21T07:34:58.354Z,1016.35
2016-12-21T07:35:58.737Z,1016.36
2016-12-21T07:36:58.605Z,1016.45
2016-12-21T07:37:59.417Z,1016.33
2016-12-21T07:38:58.884Z,1016.37
2016-12-21T07:39:58.473Z,1016.4
2016-12-21T07:40:58.856Z,1016.36
2016-12-21T07:41:59.226Z,1016.35
2016-12-21T07:42:58.937Z,1016.34
2016-12-21T07:43:59.909Z,1016.36
2016-12-21T07:44:58.836Z,1016.42
2016-12-21T07:45:58.772Z,1016.43
2016-12-21T07:46:59.558Z,1016.48
2016-12-21T07:47:59.612Z,1016.47
2016-12-21T07:48:59.083Z,1016.44
2016-12-21T07:49:58.865Z,1016.46
2016-12-21T07:50:58.816Z,1016.47
2016-12-21T07:51:58.845Z,1016.44
2016-12-21T07:52:58.642Z,1016.37
2016-12-21T07:53:59.080Z,1016.41
2016-12-21T07:54:59.217Z,1016.42
2016-12-21T07:55:59.351Z,1016.43
2016-12-21T07:56:59.710Z,1016.37
2016-12-21T07:57:59.304Z,1016.37
2016-12-21T07:58:58.993Z,1016.39
2016-12-21T07:59:58.590Z,1016.39
2016-12-21T08:00:58.911Z,1016.37
2016-12-21T08:01:58.723Z,1016.4
2016-12-21T08:02:58.561Z,1016.4
2016-12-21T08:03:58.539Z,1016.38
2016-12-21T08:04:58.868Z,1016.34
2016-12-21T08:05:58.583Z,1016.3
2016-12-21T08:06:58.531Z,1016.29
2016-12-21T08:07:58.741Z,1016.36
2016-12-21T08:08:58.636Z,1016.45
2016-12-21T08:09:58.591Z,1016.56
2016-12-21T08:10:58.682Z,1016.58
2016-12-21T08:11:58.666Z,1016.54
2016-12-21T08:12:58.652Z,1016.47
2016-12-21T08:13:58.666Z,1016.41
2016-12-21T08:14:58.684Z,1016.48
2016-12-21T08:15:58.926Z,1016.5
2016-12-21T08:16:58.858Z,1016.41
2016-12-21T08:17:59.084Z,1016.35
2016-12-21T08:18:58.837Z,1016.35
2016-12-21T08:19:59.368Z,1016.4
2016-12-21T08:20:59.057Z,1016.49
2016-12-21T08:21:58.938Z,1016.48
2016-12-21T08:22:59.295Z,1016.43
2016-12-21T08:23:59.248Z,1016.43
2016-12-21T08:24:58.871Z,1016.58
2016-12-21T08:25:59.040Z,1016.52
2016-12-21T08:26:58.901Z,1016.56
2016-12-21T08:27:59.141Z,1016.54
2016-12-21T08:28:58.847Z,1016.68
2016-12-21T08:29:58.795Z,1016.7
2016-12-21T08:30:59.412Z,1016.64
2016-12-21T08:31:59.258Z,1016.64
2016-12-21T08:32:58.931Z,1016.66
2016-12-21T08:33:59.019Z,1016.74
2016-12-21T08:34:59.283Z,1016.7
2016-12-21T08:35:59.022Z,1016.72
2016-12-21T08:36:58.934Z,1016.79
2016-12-21T08:37:59.141Z,1016.73
2016-12-21T08:38:59.138Z,1016.75
2016-12-21T08:39:59.081Z,1016.69
2016-12-21T08:40:59.214Z,1016.76
2016-12-21T08:41:59.218Z,1016.73
2016-12-21T08:42:59.207Z,1016.78
2016-12-21T08:43:58.932Z,1016.74
2016-12-21T08:44:59.367Z,1016.79
2016-12-21T08:45:59.068Z,1016.8
2016-12-21T08:46:59.060Z,1016.86
2016-12-21T08:47:59.075Z,1016.9
2016-12-21T08:48:59.074Z,1016.89
2016-12-21T08:49:59.005Z,1016.9
2016-12-21T08:50:59.243Z,1016.86
2016-12-21T08:51:59.520Z,1016.84
2016-12-21T08:52:59.107Z,1016.8
2016-12-21T08:53:59.150Z,1016.85
2016-12-21T08:54:59.090Z,1016.8
2016-12-21T08:55:59.270Z,1016.79
2016-12-21T08:56:59.142Z,1016.74
2016-12-21T08:57:59.251Z,1016.81
2016-12-21T08:58:59.273Z,1016.78
2016-12-21T08:59:59.367Z,1016.89
2016-12-21T09:00:59.254Z,1016.93
2016-12-21T09:01:59.195Z,1016.92
2016-12-21T09:02:59.523Z,1017.01
2016-12-21T09:03:59.241Z,1017.06
2016-12-21T09:05:04.205Z,1017.03
2016-12-21T09:05:59.965Z,1017.09
2016-12-21T09:07:01.212Z,1017.17
2016-12-21T09:08:01.881Z,1017.2
2016-12-21T09:09:00.124Z,1017.17
2016-12-21T09:10:27.093Z,1017.13
2016-12-21T09:11:59.497Z,1017.11
2016-12-21T09:12:59.385Z,1017.09
2016-12-21T09:13:59.421Z,1017.09
2016-12-21T09:14:59.642Z,1017.18
2016-12-21T09:15:59.499Z,1017.11
2016-12-21T09:16:59.511Z,1017.06
2016-12-21T09:17:59.428Z,1017.12
2016-12-21T09:18:59.624Z,1017.18
2016-12-21T09:20:00.001Z,1017.19
2016-12-21T09:20:59.831Z,1017.19
2016-12-21T09:21:59.723Z,1017.23
2016-12-21T09:22:59.997Z,1017.19
2016-12-21T09:23:59.745Z,1017.16
2016-12-21T09:24:59.432Z,1017.1
2016-12-21T09:25:59.824Z,1017.15
2016-12-21T09:26:59.714Z,1017.11
2016-12-21T09:27:59.798Z,1017.18
2016-12-21T09:28:59.785Z,1017.19
2016-12-21T09:29:59.631Z,1017.19
2016-12-21T09:30:59.709Z,1017.23
2016-12-21T09:31:59.800Z,1017.19
2016-12-21T09:32:59.726Z,1017.25
2016-12-21T09:33:59.768Z,1017.25
2016-12-21T09:35:00.130Z,1017.29
2016-12-21T09:35:59.768Z,1017.29
2016-12-21T09:36:59.996Z,1017.27
2016-12-21T09:37:59.894Z,1017.24
2016-12-21T09:38:59.816Z,1017.23
2016-12-21T09:39:59.804Z,1017.23
2016-12-21T09:40:59.659Z,1017.14
2016-12-21T09:41:59.967Z,1017.17
2016-12-21T09:42:59.863Z,1017.1
2016-12-21T09:44:00.076Z,1017.1
2016-12-21T09:45:00.057Z,1017.04
2016-12-21T09:45:59.810Z,1017
2016-12-21T09:46:59.998Z,1017.08
2016-12-21T09:47:59.923Z,1017.11
2016-12-21T09:48:59.738Z,1017.09
2016-12-21T09:49:59.797Z,1017.15
2016-12-21T09:51:00.158Z,1017.1
2016-12-21T09:51:59.950Z,1017.1
2016-12-21T09:52:59.865Z,1017.13
2016-12-21T09:54:00.091Z,1017.11
2016-12-21T09:54:59.963Z,1017.08
2016-12-21T09:55:59.854Z,1017.08
2016-12-21T09:57:00.088Z,1017.06
2016-12-21T09:57:59.851Z,1017.05
2016-12-21T09:58:59.997Z,1017.09
2016-12-21T09:59:59.976Z,1017.05
2016-12-21T10:00:59.997Z,1017.07
2016-12-21T10:02:00.004Z,1017.03
2016-12-21T10:03:00.264Z,1017.07
2016-12-21T10:04:00.039Z,1017.08
2016-12-21T10:04:59.987Z,1017.02
2016-12-21T10:06:00.017Z,1017.03
2016-12-21T10:06:59.998Z,1017.03
2016-12-21T10:08:00.059Z,1017.03
2016-12-21T10:09:00.205Z,1017.09
2016-12-21T10:10:00.333Z,1017.05
2016-12-21T10:10:59.997Z,1017
2016-12-21T10:12:00.206Z,1017.02
2016-12-21T10:13:00.140Z,1017.05
2016-12-21T10:14:00.012Z,1016.95
2016-12-21T10:15:00.284Z,1016.96
2016-12-21T10:16:00.334Z,1017.06
2016-12-21T10:17:00.266Z,1017.08
2016-12-21T10:18:00.090Z,1017.08
2016-12-21T10:19:00.169Z,1017.09
2016-12-21T10:20:00.280Z,1017.08
2016-12-21T10:21:00.131Z,1017.14
2016-12-21T10:22:00.221Z,1017.18
2016-12-21T10:23:00.208Z,1017.15
2016-12-21T10:24:00.340Z,1017.19
2016-12-21T10:25:00.228Z,1017.13
2016-12-21T10:26:00.367Z,1017.17
2016-12-21T10:27:00.444Z,1017.2
2016-12-21T10:28:00.187Z,1017.17
2016-12-21T10:29:00.324Z,1017.15
2016-12-21T10:30:00.287Z,1017.23
2016-12-21T10:31:00.323Z,1017.19
2016-12-21T10:32:00.410Z,1017.18
2016-12-21T10:33:00.618Z,1017.19
2016-12-21T10:34:00.313Z,1017.22
2016-12-21T10:35:00.615Z,1017.23
2016-12-21T10:36:00.295Z,1017.25
2016-12-21T10:37:00.577Z,1017.27
2016-12-21T10:38:00.622Z,1017.24
2016-12-21T10:39:00.495Z,1017.26
2016-12-21T10:40:00.391Z,1017.21
2016-12-21T10:41:00.450Z,1017.23
2016-12-21T10:42:00.460Z,1017.3
2016-12-21T10:43:00.457Z,1017.32
2016-12-21T10:44:00.457Z,1017.28
2016-12-21T10:45:00.578Z,1017.29
2016-12-21T10:46:00.567Z,1017.32
2016-12-21T10:47:00.748Z,1017.25
2016-12-21T10:48:00.669Z,1017.22
2016-12-21T10:49:00.556Z,1017.19
2016-12-21T10:50:00.598Z,1017.22
2016-12-21T10:51:00.761Z,1017.2
2016-12-21T10:52:00.732Z,1017.21
2016-12-21T10:53:00.738Z,1017.23
2016-12-21T10:54:00.742Z,1017.21
2016-12-21T10:55:00.549Z,1017.23
2016-12-21T10:56:00.633Z,1017.26
2016-12-21T10:57:01.087Z,1017.22
2016-12-21T10:58:00.741Z,1017.16
2016-12-21T10:59:00.631Z,1017.15
2016-12-21T11:00:00.854Z,1017.18
2016-12-21T11:01:00.794Z,1017.14
2016-12-21T11:02:00.718Z,1017.15
2016-12-21T11:03:01.096Z,1017.13
2016-12-21T11:04:00.662Z,1017.12
2016-12-21T11:05:00.690Z,1017.12
2016-12-21T11:06:00.790Z,1017.09
2016-12-21T11:07:00.746Z,1017.07
2016-12-21T11:08:00.760Z,1017.1
2016-12-21T11:09:00.839Z,1017.07
2016-12-21T11:10:00.853Z,1017.1
2016-12-21T11:11:01.099Z,1017.1
2016-12-21T11:12:00.972Z,1017.11
2016-12-21T11:13:00.800Z,1017.04
2016-12-21T11:14:01.061Z,1017.09
2016-12-21T11:15:00.838Z,1017.07
2016-12-21T11:16:01.619Z,1017.16
2016-12-21T11:17:01.183Z,1017.12
2016-12-21T11:18:01.091Z,1017.12
2016-12-21T11:19:00.904Z,1017.13
2016-12-21T11:20:01.168Z,1017.12
2016-12-21T11:21:01.249Z,1017.12
2016-12-21T11:22:01.382Z,1017.12
2016-12-21T11:23:00.978Z,1017.1
2016-12-21T11:24:01.158Z,1017.1
2016-12-21T11:25:01.040Z,1017.09
2016-12-21T11:26:01.133Z,1017.04
2016-12-21T11:27:01.302Z,1017.07
2016-12-21T11:28:01.205Z,1017.09
2016-12-21T11:29:01.320Z,1017.11
2016-12-21T11:30:01.100Z,1017.07
2016-12-21T11:31:01.334Z,1017.09
2016-12-21T11:32:01.319Z,1017.13
2016-12-21T11:33:01.235Z,1017.04
2016-12-21T11:34:01.242Z,1017.07
2016-12-21T11:35:01.491Z,1017.07
2016-12-21T11:36:01.227Z,1017.05
2016-12-21T11:37:01.577Z,1017.09
2016-12-21T11:38:01.566Z,1017.02
2016-12-21T11:39:01.467Z,1017.05
2016-12-21T11:40:01.332Z,1017.05
2016-12-21T11:41:01.270Z,1017.08
2016-12-21T11:42:01.389Z,1017.06
2016-12-21T11:43:01.270Z,1017.1
2016-12-21T11:44:01.273Z,1017.12
2016-12-21T11:45:01.201Z,1017.09
2016-12-21T11:46:01.343Z,1017.03
2016-12-21T11:47:01.331Z,1017.07
2016-12-21T11:48:01.567Z,1017.06
2016-12-21T11:49:01.331Z,1017.02
2016-12-21T11:50:01.313Z,1017.02
2016-12-21T11:51:01.297Z,1017.04
2016-12-21T11:52:01.531Z,1017
2016-12-21T11:53:01.412Z,1017.02
2016-12-21T11:54:01.534Z,1017.02
2016-12-21T11:55:01.464Z,1017.07
2016-12-21T11:56:01.645Z,1017.12
2016-12-21T11:57:01.613Z,1017.13
2016-12-21T11:58:01.565Z,1017.11
2016-12-21T11:59:01.568Z,1017.1
2016-12-21T12:00:01.530Z,1017.11
2016-12-21T12:01:01.488Z,1017.12
2016-12-21T12:02:01.747Z,1017.09
2016-12-21T12:03:01.523Z,1017.1
2016-12-21T12:04:01.568Z,1017.11
2016-12-21T12:05:01.766Z,1017.13
2016-12-21T12:06:01.724Z,1017.14
2016-12-21T12:07:01.700Z,1017.1
2016-12-21T12:08:01.729Z,1017.09
2016-12-21T12:09:01.717Z,1017.11
2016-12-21T12:10:01.691Z,1017.15
2016-12-21T12:11:01.512Z,1017.14